sensor_id;sensor_type;location;lat;lon;timestamp;pressure;altitude;pressure_sealevel;temperature;humidity
22580;BME280;11456;47.030;15.396;2022-07-29T00:02:16;97502.06;;;21.75;76.61
22580;BME280;11456;47.030;15.396;2022-07-29T00:04:42;97502.97;;;21.69;76.14
22580;BME280;11456;47.030;15.396;2022-07-29T00:07:09;97497.72;;;21.67;75.93
22580;BME280;11456;47.030;15.396;2022-07-29T00:09:38;97502.06;;;21.75;75.67
22580;BME280;11456;47.030;15.396;2022-07-29T00:12:18;97510.66;;;21.35;77.31
22580;BME280;11456;47.030;15.396;2022-07-29T00:14:53;97502.53;;;21.47;77.85
22580;BME280;11456;47.030;15.396;2022-07-29T00:17:21;97508.97;;;21.34;77.17
22580;BME280;11456;47.030;15.396;2022-07-29T00:19:47;97513.84;;;21.57;76.34
22580;BME280;11456;47.030;15.396;2022-07-29T00:22:14;97511.34;;;21.74;75.12
22580;BME280;11456;47.030;15.396;2022-07-29T00:24:41;97505.72;;;21.87;74.52
22580;BME280;11456;47.030;15.396;2022-07-29T00:27:07;97513.53;;;21.65;74.92
22580;BME280;11456;47.030;15.396;2022-07-29T00:29:34;97515.50;;;21.33;76.83
22580;BME280;11456;47.030;15.396;2022-07-29T00:32:01;97514.13;;;21.24;77.80
22580;BME280;11456;47.030;15.396;2022-07-29T00:34:28;97503.53;;;21.52;76.35
22580;BME280;11456;47.030;15.396;2022-07-29T00:37:14;97496.38;;;21.51;76.25
22580;BME280;11456;47.030;15.396;2022-07-29T00:39:40;97500.44;;;21.24;78.04
22580;BME280;11456;47.030;15.396;2022-07-29T00:42:07;97495.63;;;21.44;77.89
22580;BME280;11456;47.030;15.396;2022-07-29T00:44:38;97495.63;;;21.44;77.21
22580;BME280;11456;47.030;15.396;2022-07-29T00:47:05;97492.84;;;21.69;76.38
22580;BME280;11456;47.030;15.396;2022-07-29T00:49:33;97494.44;;;21.77;76.34
22580;BME280;11456;47.030;15.396;2022-07-29T00:52:04;97497.22;;;21.52;77.70
22580;BME280;11456;47.030;15.396;2022-07-29T00:54:32;97488.78;;;21.53;77.66
22580;BME280;11456;47.030;15.396;2022-07-29T00:57:00;97491.41;;;21.42;77.50
22580;BME280;11456;47.030;15.396;2022-07-29T00:59:27;97480.50;;;21.78;75.71
22580;BME280;11456;47.030;15.396;2022-07-29T01:02:02;97486.91;;;21.90;74.32
22580;BME280;11456;47.030;15.396;2022-07-29T01:04:30;97487.88;;;21.78;75.30
22580;BME280;11456;47.030;15.396;2022-07-29T01:06:58;97485.91;;;21.85;75.09
22580;BME280;11456;47.030;15.396;2022-07-29T01:09:27;97486.59;;;21.62;76.75
22580;BME280;11456;47.030;15.396;2022-07-29T01:12:15;97481.91;;;21.19;80.42
22580;BME280;11456;47.030;15.396;2022-07-29T01:14:44;97483.22;;;21.17;80.65
22580;BME280;11456;47.030;15.396;2022-07-29T01:17:16;97484.94;;;21.36;79.69
22580;BME280;11456;47.030;15.396;2022-07-29T01:25:53;97487.75;;;21.30;79.04
22580;BME280;11456;47.030;15.396;2022-07-29T01:28:49;97480.72;;;21.09;80.72
22580;BME280;11456;47.030;15.396;2022-07-29T01:34:27;97493.59;;;21.33;79.66
22580;BME280;11456;47.030;15.396;2022-07-29T01:37:08;97481.78;;;21.33;79.27
22580;BME280;11456;47.030;15.396;2022-07-29T01:39:39;97479.63;;;21.41;78.74
22580;BME280;11456;47.030;15.396;2022-07-29T01:42:36;97481.75;;;21.39;78.59
22580;BME280;11456;47.030;15.396;2022-07-29T01:45:18;97480.97;;;21.32;79.07
22580;BME280;11456;47.030;15.396;2022-07-29T01:48:00;97481.19;;;21.06;80.88
22580;BME280;11456;47.030;15.396;2022-07-29T01:50:34;97478.19;;;21.07;80.64
22580;BME280;11456;47.030;15.396;2022-07-29T01:53:04;97475.88;;;21.11;81.11
22580;BME280;11456;47.030;15.396;2022-07-29T01:55:34;97484.38;;;21.28;79.58
22580;BME280;11456;47.030;15.396;2022-07-29T01:58:04;97482.22;;;21.05;80.82
22580;BME280;11456;47.030;15.396;2022-07-29T02:00:33;97473.31;;;20.85;82.11
22580;BME280;11456;47.030;15.396;2022-07-29T02:03:03;97472.44;;;20.91;81.93
22580;BME280;11456;47.030;15.396;2022-07-29T02:05:32;97469.16;;;20.75;82.67
22580;BME280;11456;47.030;15.396;2022-07-29T02:08:01;97459.19;;;20.88;81.71
22580;BME280;11456;47.030;15.396;2022-07-29T02:10:30;97468.38;;;20.68;82.38
22580;BME280;11456;47.030;15.396;2022-07-29T02:12:58;97462.78;;;20.57;82.96
22580;BME280;11456;47.030;15.396;2022-07-29T02:15:27;97458.81;;;20.53;82.91
22580;BME280;11456;47.030;15.396;2022-07-29T02:18:05;97460.16;;;20.37;83.61
22580;BME280;11456;47.030;15.396;2022-07-29T02:20:33;97455.97;;;20.28;84.36
22580;BME280;11456;47.030;15.396;2022-07-29T02:23:00;97460.16;;;20.37;83.44
22580;BME280;11456;47.030;15.396;2022-07-29T02:25:29;97458.03;;;20.39;83.31
22580;BME280;11456;47.030;15.396;2022-07-29T02:28:05;97452.84;;;20.18;84.48
22580;BME280;11456;47.030;15.396;2022-07-29T02:30:35;97453.47;;;20.20;83.37
22580;BME280;11456;47.030;15.396;2022-07-29T02:33:03;97446.78;;;20.16;83.25
22580;BME280;11456;47.030;15.396;2022-07-29T02:35:30;97459.53;;;20.35;81.94
22580;BME280;11456;47.030;15.396;2022-07-29T02:38:02;97454.28;;;20.27;82.15
22580;BME280;11456;47.030;15.396;2022-07-29T02:40:48;97444.22;;;20.21;82.38
22580;BME280;11456;47.030;15.396;2022-07-29T02:43:17;97452.31;;;20.02;83.38
22580;BME280;11456;47.030;15.396;2022-07-29T02:45:47;97451.84;;;20.06;83.59
22580;BME280;11456;47.030;15.396;2022-07-29T02:48:19;97451.22;;;20.03;83.41
22580;BME280;11456;47.030;15.396;2022-07-29T02:50:52;97442.66;;;19.93;84.19
22580;BME280;11456;47.030;15.396;2022-07-29T02:53:22;97448.56;;;19.90;84.13
22580;BME280;11456;47.030;15.396;2022-07-29T02:55:59;97445.97;;;20.09;83.90
22580;BME280;11456;47.030;15.396;2022-07-29T02:58:34;97453.19;;;19.96;84.00
22580;BME280;11456;47.030;15.396;2022-07-29T03:01:16;97450.69;;;19.88;84.35
22580;BME280;11456;47.030;15.396;2022-07-29T03:03:48;97451.09;;;19.85;84.70
22580;BME280;11456;47.030;15.396;2022-07-29T03:06:17;97449.38;;;19.97;83.90
22580;BME280;11456;47.030;15.396;2022-07-29T03:09:06;97449.63;;;19.89;83.97
22580;BME280;11456;47.030;15.396;2022-07-29T03:11:39;97452.78;;;19.86;83.81
22580;BME280;11456;47.030;15.396;2022-07-29T03:14:19;97452.69;;;20.13;82.56
22580;BME280;11456;47.030;15.396;2022-07-29T03:16:48;97449.47;;;19.78;83.34
22580;BME280;11456;47.030;15.396;2022-07-29T03:19:15;97448.63;;;19.77;83.46
22580;BME280;11456;47.030;15.396;2022-07-29T03:21:42;97437.31;;;19.41;85.55
22580;BME280;11456;47.030;15.396;2022-07-29T03:24:09;97463.38;;;19.37;85.78
22580;BME280;11456;47.030;15.396;2022-07-29T03:26:36;97451.41;;;19.38;86.66
22580;BME280;11456;47.030;15.396;2022-07-29T03:29:03;97450.78;;;19.49;85.78
22580;BME280;11456;47.030;15.396;2022-07-29T03:31:30;97446.78;;;19.45;85.50
22580;BME280;11456;47.030;15.396;2022-07-29T03:33:59;97455.84;;;19.39;86.52
22580;BME280;11456;47.030;15.396;2022-07-29T03:36:26;97456.69;;;19.33;86.72
22580;BME280;11456;47.030;15.396;2022-07-29T03:38:52;97453.09;;;19.39;85.94
22580;BME280;11456;47.030;15.396;2022-07-29T03:41:21;97452.03;;;19.40;86.13
22580;BME280;11456;47.030;15.396;2022-07-29T03:43:49;97462.94;;;19.40;85.87
22580;BME280;11456;47.030;15.396;2022-07-29T03:46:17;97455.00;;;19.18;86.54
22580;BME280;11456;47.030;15.396;2022-07-29T03:48:48;97460.03;;;18.82;88.34
22580;BME280;11456;47.030;15.396;2022-07-29T03:51:17;97465.09;;;18.92;88.41
22580;BME280;11456;47.030;15.396;2022-07-29T03:53:59;97456.47;;;19.01;87.49
22580;BME280;11456;47.030;15.396;2022-07-29T03:56:27;97465.75;;;19.13;87.04
22580;BME280;11456;47.030;15.396;2022-07-29T03:58:54;97460.69;;;19.17;86.63
22580;BME280;11456;47.030;15.396;2022-07-29T04:01:22;97463.81;;;19.20;86.43
22580;BME280;11456;47.030;15.396;2022-07-29T04:03:49;97470.56;;;19.25;85.67
22580;BME280;11456;47.030;15.396;2022-07-29T04:06:17;97467.19;;;19.09;86.83
22580;BME280;11456;47.030;15.396;2022-07-29T04:08:44;97470.75;;;19.16;86.87
22580;BME280;11456;47.030;15.396;2022-07-29T04:11:10;97482.91;;;19.20;87.00
22580;BME280;11456;47.030;15.396;2022-07-29T04:13:37;97471.38;;;19.32;85.66
22580;BME280;11456;47.030;15.396;2022-07-29T04:16:04;97469.72;;;19.17;87.17
22580;BME280;11456;47.030;15.396;2022-07-29T04:18:31;97464.66;;;19.08;88.38
22580;BME280;11456;47.030;15.396;2022-07-29T04:20:57;97464.66;;;19.28;87.87
22580;BME280;11456;47.030;15.396;2022-07-29T04:23:29;97468.22;;;19.48;86.77
22580;BME280;11456;47.030;15.396;2022-07-29T04:25:58;97468.88;;;19.50;86.29
22580;BME280;11456;47.030;15.396;2022-07-29T04:28:27;97468.03;;;19.30;88.42
22580;BME280;11456;47.030;15.396;2022-07-29T04:30:54;97477.69;;;19.32;88.95
22580;BME280;11456;47.030;15.396;2022-07-29T04:33:21;97463.78;;;19.60;87.95
22580;BME280;11456;47.030;15.396;2022-07-29T04:35:50;97467.97;;;19.69;87.25
22580;BME280;11456;47.030;15.396;2022-07-29T04:38:21;97462.88;;;19.79;87.48
22580;BME280;11456;47.030;15.396;2022-07-29T04:40:48;97472.00;;;20.18;85.95
22580;BME280;11456;47.030;15.396;2022-07-29T04:43:15;97475.34;;;20.20;85.69
22580;BME280;11456;47.030;15.396;2022-07-29T04:45:48;97476.41;;;20.19;85.79
22580;BME280;11456;47.030;15.396;2022-07-29T04:48:14;97478.63;;;20.48;84.35
22580;BME280;11456;47.030;15.396;2022-07-29T04:50:41;97475.75;;;20.23;86.29
22580;BME280;11456;47.030;15.396;2022-07-29T04:53:08;97479.19;;;20.57;84.90
22580;BME280;11456;47.030;15.396;2022-07-29T04:55:35;97469.97;;;20.83;83.74
22580;BME280;11456;47.030;15.396;2022-07-29T04:58:04;97474.97;;;20.92;83.34
22580;BME280;11456;47.030;15.396;2022-07-29T05:00:31;97486.19;;;21.09;82.85
22580;BME280;11456;47.030;15.396;2022-07-29T05:02:59;97481.41;;;21.29;81.04
22580;BME280;11456;47.030;15.396;2022-07-29T05:05:26;97488.72;;;21.10;82.14
22580;BME280;11456;47.030;15.396;2022-07-29T05:07:52;97486.00;;;21.35;81.34
22580;BME280;11456;47.030;15.396;2022-07-29T05:10:19;97480.97;;;21.32;81.36
22580;BME280;11456;47.030;15.396;2022-07-29T05:12:46;97478.97;;;21.64;80.26
22580;BME280;11456;47.030;15.396;2022-07-29T05:15:13;97470.53;;;21.66;79.11
22580;BME280;11456;47.030;15.396;2022-07-29T05:17:40;97481.34;;;21.60;78.79
22580;BME280;11456;47.030;15.396;2022-07-29T05:20:07;97477.97;;;21.77;78.08
22580;BME280;11456;47.030;15.396;2022-07-29T05:22:33;97483.72;;;21.93;76.60
22580;BME280;11456;47.030;15.396;2022-07-29T05:25:00;97474.03;;;21.91;76.60
22580;BME280;11456;47.030;15.396;2022-07-29T05:27:35;97477.28;;;22.06;77.19
22580;BME280;11456;47.030;15.396;2022-07-29T05:30:02;97477.63;;;22.28;76.31
22580;BME280;11456;47.030;15.396;2022-07-29T05:32:29;97486.03;;;22.15;74.72
22580;BME280;11456;47.030;15.396;2022-07-29T05:34:55;97479.47;;;22.64;74.10
22580;BME280;11456;47.030;15.396;2022-07-29T05:37:22;97487.94;;;22.62;71.76
22580;BME280;11456;47.030;15.396;2022-07-29T05:39:49;97478.75;;;22.98;71.77
22580;BME280;11456;47.030;15.396;2022-07-29T05:42:23;97483.47;;;22.79;70.98
22580;BME280;11456;47.030;15.396;2022-07-29T05:44:50;97487.94;;;22.92;71.63
22580;BME280;11456;47.030;15.396;2022-07-29T05:47:17;97491.28;;;22.94;71.85
22580;BME280;11456;47.030;15.396;2022-07-29T05:49:44;97489.13;;;23.49;68.99
22580;BME280;11456;47.030;15.396;2022-07-29T05:52:11;97485.88;;;23.41;69.56
22580;BME280;11456;47.030;15.396;2022-07-29T05:54:39;97487.59;;;23.53;68.79
22580;BME280;11456;47.030;15.396;2022-07-29T05:57:06;97495.25;;;23.86;67.17
22580;BME280;11456;47.030;15.396;2022-07-29T05:59:37;97486.59;;;23.94;66.44
22580;BME280;11456;47.030;15.396;2022-07-29T06:02:04;97486.47;;;24.01;65.80
22580;BME280;11456;47.030;15.396;2022-07-29T06:04:34;97483.13;;;24.22;65.35
22580;BME280;11456;47.030;15.396;2022-07-29T06:07:01;97484.72;;;24.47;64.42
22580;BME280;11456;47.030;15.396;2022-07-29T06:09:28;97484.59;;;24.82;62.47
22580;BME280;11456;47.030;15.396;2022-07-29T06:11:55;97486.44;;;25.21;62.09
22580;BME280;11456;47.030;15.396;2022-07-29T06:14:22;97476.47;;;24.75;63.20
22580;BME280;11456;47.030;15.396;2022-07-29T06:16:49;97486.81;;;24.85;63.55
22580;BME280;11456;47.030;15.396;2022-07-29T06:19:15;97491.59;;;25.17;62.05
22580;BME280;11456;47.030;15.396;2022-07-29T06:21:43;97489.59;;;25.46;61.14
22580;BME280;11456;47.030;15.396;2022-07-29T06:24:14;97486.91;;;25.18;61.69
22580;BME280;11456;47.030;15.396;2022-07-29T06:26:42;97482.41;;;25.79;60.05
22580;BME280;11456;47.030;15.396;2022-07-29T06:29:09;97484.22;;;25.90;57.58
22580;BME280;11456;47.030;15.396;2022-07-29T06:31:39;97488.13;;;25.72;58.01
22580;BME280;11456;47.030;15.396;2022-07-29T06:34:06;97482.84;;;26.09;57.18
22580;BME280;11456;47.030;15.396;2022-07-29T06:36:36;97490.09;;;26.15;56.93
22580;BME280;11456;47.030;15.396;2022-07-29T06:39:08;97488.41;;;26.53;55.23
22580;BME280;11456;47.030;15.396;2022-07-29T06:41:37;97485.84;;;26.24;56.13
22580;BME280;11456;47.030;15.396;2022-07-29T06:44:08;97481.16;;;26.08;57.43
22580;BME280;11456;47.030;15.396;2022-07-29T06:46:35;97478.44;;;26.73;54.06
22580;BME280;11456;47.030;15.396;2022-07-29T06:49:03;97482.69;;;25.99;56.32
22580;BME280;11456;47.030;15.396;2022-07-29T06:51:29;97480.66;;;26.77;53.90
22580;BME280;11456;47.030;15.396;2022-07-29T06:53:56;97475.75;;;27.05;52.06
22580;BME280;11456;47.030;15.396;2022-07-29T06:56:32;97475.19;;;27.08;52.73
22580;BME280;11456;47.030;15.396;2022-07-29T06:59:09;97475.31;;;27.19;53.88
22580;BME280;11456;47.030;15.396;2022-07-29T07:01:39;97480.41;;;28.06;51.54
22580;BME280;11456;47.030;15.396;2022-07-29T07:04:06;97481.00;;;28.13;49.19
22580;BME280;11456;47.030;15.396;2022-07-29T07:06:35;97482.75;;;28.24;50.20
22580;BME280;11456;47.030;15.396;2022-07-29T07:09:03;97483.41;;;28.41;49.36
22580;BME280;11456;47.030;15.396;2022-07-29T07:11:29;97486.13;;;29.14;47.96
22580;BME280;11456;47.030;15.396;2022-07-29T07:13:56;97480.88;;;29.17;46.79
22580;BME280;11456;47.030;15.396;2022-07-29T07:16:29;97484.72;;;28.96;48.42
22580;BME280;11456;47.030;15.396;2022-07-29T07:18:55;97485.31;;;29.23;46.45
22580;BME280;11456;47.030;15.396;2022-07-29T07:21:22;97483.06;;;29.10;45.96
22580;BME280;11456;47.030;15.396;2022-07-29T07:23:49;97484.19;;;30.10;45.63
22580;BME280;11456;47.030;15.396;2022-07-29T07:26:16;97474.63;;;30.47;42.50
22580;BME280;11456;47.030;15.396;2022-07-29T07:28:42;97484.78;;;29.41;44.73
22580;BME280;11456;47.030;15.396;2022-07-29T07:31:10;97478.13;;;29.93;44.50
22580;BME280;11456;47.030;15.396;2022-07-29T07:33:37;97478.56;;;30.31;42.47
22580;BME280;11456;47.030;15.396;2022-07-29T07:36:03;97475.19;;;30.49;42.93
22580;BME280;11456;47.030;15.396;2022-07-29T07:38:30;97480.78;;;30.39;42.27
22580;BME280;11456;47.030;15.396;2022-07-29T07:40:57;97482.97;;;30.47;42.53
22580;BME280;11456;47.030;15.396;2022-07-29T07:43:23;97477.94;;;30.54;41.30
22580;BME280;11456;47.030;15.396;2022-07-29T07:45:50;97478.13;;;29.93;43.35
22580;BME280;11456;47.030;15.396;2022-07-29T07:48:17;97492.00;;;30.08;44.17
22580;BME280;11456;47.030;15.396;2022-07-29T07:50:44;97470.47;;;31.03;42.15
22580;BME280;11456;47.030;15.396;2022-07-29T07:53:11;97475.19;;;30.49;43.91
22580;BME280;11456;47.030;15.396;2022-07-29T07:55:42;97472.66;;;31.17;41.21
22580;BME280;11456;47.030;15.396;2022-07-29T07:58:29;97468.28;;;31.39;39.55
22580;BME280;11456;47.030;15.396;2022-07-29T08:00:56;97472.25;;;30.84;39.75
22580;BME280;11456;47.030;15.396;2022-07-29T08:03:23;97471.03;;;31.78;38.48
22580;BME280;11456;47.030;15.396;2022-07-29T08:05:49;97468.47;;;32.58;38.31
22580;BME280;11456;47.030;15.396;2022-07-29T08:08:18;97478.72;;;31.19;38.43
22580;BME280;11456;47.030;15.396;2022-07-29T08:10:44;97470.94;;;31.55;38.57
22580;BME280;11456;47.030;15.396;2022-07-29T08:13:24;97471.81;;;31.50;37.62
22580;BME280;11456;47.030;15.396;2022-07-29T08:15:54;97477.00;;;31.28;38.53
22580;BME280;11456;47.030;15.396;2022-07-29T08:18:25;97482.41;;;31.82;37.65
22580;BME280;11456;47.030;15.396;2022-07-29T08:20:53;97489.09;;;30.44;40.56
22580;BME280;11456;47.030;15.396;2022-07-29T08:23:20;97479.44;;;30.90;37.75
22580;BME280;11456;47.030;15.396;2022-07-29T08:25:47;97488.19;;;31.18;36.51
22580;BME280;11456;47.030;15.396;2022-07-29T08:28:16;97492.22;;;31.40;36.91
22580;BME280;11456;47.030;15.396;2022-07-29T08:30:43;97482.28;;;30.80;37.91
22580;BME280;11456;47.030;15.396;2022-07-29T08:33:10;97491.78;;;30.69;38.97
22580;BME280;11456;47.030;15.396;2022-07-29T08:35:38;97485.91;;;30.76;39.56
22580;BME280;11456;47.030;15.396;2022-07-29T08:38:05;97488.56;;;31.45;37.79
22580;BME280;11456;47.030;15.396;2022-07-29T08:40:32;97498.06;;;30.20;38.25
22580;BME280;11456;47.030;15.396;2022-07-29T08:43:04;97500.88;;;29.65;38.25
22580;BME280;11456;47.030;15.396;2022-07-29T08:45:42;97510.31;;;29.38;39.62
22580;BME280;11456;47.030;15.396;2022-07-29T08:48:18;97513.94;;;29.49;39.74
22580;BME280;11456;47.030;15.396;2022-07-29T08:50:47;97516.56;;;28.88;41.50
22580;BME280;11456;47.030;15.396;2022-07-29T08:53:16;97509.47;;;28.50;42.21
22580;BME280;11456;47.030;15.396;2022-07-29T08:55:48;97514.78;;;28.10;43.19
22580;BME280;11456;47.030;15.396;2022-07-29T08:58:16;97520.44;;;28.30;43.83
22580;BME280;11456;47.030;15.396;2022-07-29T09:00:45;97519.75;;;28.08;43.43
22580;BME280;11456;47.030;15.396;2022-07-29T09:03:16;97516.09;;;27.97;44.07
22580;BME280;11456;47.030;15.396;2022-07-29T09:05:45;97514.19;;;28.03;43.53
22580;BME280;11456;47.030;15.396;2022-07-29T09:08:15;97516.69;;;27.67;44.64
22580;BME280;11456;47.030;15.396;2022-07-29T09:10:42;97511.09;;;27.57;44.36
22580;BME280;11456;47.030;15.396;2022-07-29T09:13:09;97521.16;;;27.73;44.13
22580;BME280;11456;47.030;15.396;2022-07-29T09:15:36;97520.06;;;27.74;43.73
22580;BME280;11456;47.030;15.396;2022-07-29T09:18:02;97519.28;;;28.16;43.01
22580;BME280;11456;47.030;15.396;2022-07-29T09:20:29;97530.31;;;27.79;44.08
22580;BME280;11456;47.030;15.396;2022-07-29T09:23:16;97526.53;;;27.53;44.79
22580;BME280;11456;47.030;15.396;2022-07-29T09:25:49;97527.44;;;27.32;44.37
22580;BME280;11456;47.030;15.396;2022-07-29T09:28:17;97527.03;;;27.50;44.08
22580;BME280;11456;47.030;15.396;2022-07-29T09:30:57;97528.09;;;27.44;44.05
22580;BME280;11456;47.030;15.396;2022-07-29T09:33:33;97527.13;;;27.60;43.79
22580;BME280;11456;47.030;15.396;2022-07-29T09:36:07;97523.31;;;27.66;44.24
22580;BME280;11456;47.030;15.396;2022-07-29T09:38:35;97528.09;;;27.76;44.38
22580;BME280;11456;47.030;15.396;2022-07-29T09:41:04;97516.00;;;27.87;43.75
22580;BME280;11456;47.030;15.396;2022-07-29T09:43:33;97525.78;;;27.63;43.72
22580;BME280;11456;47.030;15.396;2022-07-29T09:46:13;97519.59;;;27.87;42.91
22580;BME280;11456;47.030;15.396;2022-07-29T09:48:40;97522.19;;;28.04;42.53
22580;BME280;11456;47.030;15.396;2022-07-29T09:51:20;97510.84;;;28.01;43.38
22580;BME280;11456;47.030;15.396;2022-07-29T09:53:55;97515.84;;;28.04;42.68
22580;BME280;11456;47.030;15.396;2022-07-29T09:56:41;97521.31;;;27.93;42.34
22580;BME280;11456;47.030;15.396;2022-07-29T09:59:08;97520.47;;;27.93;43.40
22580;BME280;11456;47.030;15.396;2022-07-29T10:01:35;97519.38;;;28.36;42.51
22580;BME280;11456;47.030;15.396;2022-07-29T10:04:02;97523.97;;;27.78;44.19
22580;BME280;11456;47.030;15.396;2022-07-29T10:06:29;97524.88;;;27.52;44.31
22580;BME280;11456;47.030;15.396;2022-07-29T10:09:10;97524.88;;;27.52;44.63
22580;BME280;11456;47.030;15.396;2022-07-29T10:11:37;97522.09;;;27.25;45.19
22580;BME280;11456;47.030;15.396;2022-07-29T10:14:15;97523.00;;;27.31;45.04
22580;BME280;11456;47.030;15.396;2022-07-29T10:16:42;97516.03;;;27.01;46.90
22580;BME280;11456;47.030;15.396;2022-07-29T10:19:09;97518.34;;;27.09;46.09
22580;BME280;11456;47.030;15.396;2022-07-29T10:21:37;97516.25;;;27.22;46.07
22580;BME280;11456;47.030;15.396;2022-07-29T10:24:06;97510.09;;;27.73;44.00
22580;BME280;11456;47.030;15.396;2022-07-29T10:26:40;97513.03;;;27.30;44.89
22580;BME280;11456;47.030;15.396;2022-07-29T10:29:07;97509.31;;;27.46;44.72
22580;BME280;11456;47.030;15.396;2022-07-29T10:31:50;97508.19;;;27.47;45.22
22580;BME280;11456;47.030;15.396;2022-07-29T10:40:31;97505.31;;;27.64;46.66
22580;BME280;11456;47.030;15.396;2022-07-29T10:43:46;97495.25;;;27.84;46.50
22580;BME280;11456;47.030;15.396;2022-07-29T10:46:17;97498.84;;;27.53;47.10
22580;BME280;11456;47.030;15.396;2022-07-29T10:52:06;97491.44;;;27.96;45.17
22580;BME280;11456;47.030;15.396;2022-07-29T10:57:30;97487.81;;;29.25;42.94
22580;BME280;11456;47.030;15.396;2022-07-29T11:00:25;97482.03;;;29.62;42.36
22580;BME280;11456;47.030;15.396;2022-07-29T11:02:52;97485.06;;;29.75;41.06
22580;BME280;11456;47.030;15.396;2022-07-29T11:05:22;97483.97;;;29.46;42.35
22580;BME280;11456;47.030;15.396;2022-07-29T11:10:53;97474.47;;;30.03;39.93
22580;BME280;11456;47.030;15.396;2022-07-29T11:16:15;97468.66;;;30.84;38.96
22580;BME280;11456;47.030;15.396;2022-07-29T11:21:36;97461.56;;;31.01;38.41
22580;BME280;11456;47.030;15.396;2022-07-29T11:24:27;97460.22;;;31.38;37.30
22580;BME280;11456;47.030;15.396;2022-07-29T11:29:47;97465.63;;;32.87;33.56
22580;BME280;11456;47.030;15.396;2022-07-29T11:32:16;97461.16;;;32.20;35.03
22580;BME280;11456;47.030;15.396;2022-07-29T11:37:45;97457.03;;;31.21;35.62
22580;BME280;11456;47.030;15.396;2022-07-29T11:40:23;97462.88;;;30.70;36.51
22580;BME280;11456;47.030;15.396;2022-07-29T11:42:50;97462.50;;;30.17;37.37
22580;BME280;11456;47.030;15.396;2022-07-29T11:45:23;97456.44;;;29.90;38.49
22580;BME280;11456;47.030;15.396;2022-07-29T11:48:15;97459.25;;;29.95;38.59
22580;BME280;11456;47.030;15.396;2022-07-29T11:50:56;97454.06;;;30.43;38.13
22580;BME280;11456;47.030;15.396;2022-07-29T11:53:24;97455.19;;;31.01;36.69
22580;BME280;11456;47.030;15.396;2022-07-29T11:55:55;97446.06;;;30.90;36.55
22580;BME280;11456;47.030;15.396;2022-07-29T11:58:42;97461.22;;;30.69;37.48
22580;BME280;11456;47.030;15.396;2022-07-29T12:01:13;97458.34;;;30.79;37.45
22580;BME280;11456;47.030;15.396;2022-07-29T12:03:40;97455.56;;;30.79;37.44
22580;BME280;11456;47.030;15.396;2022-07-29T12:06:14;97455.75;;;30.44;39.00
22580;BME280;11456;47.030;15.396;2022-07-29T12:08:44;97457.97;;;30.52;39.22
22580;BME280;11456;47.030;15.396;2022-07-29T12:11:18;97462.00;;;28.99;39.51
22580;BME280;11456;47.030;15.396;2022-07-29T12:13:47;97460.88;;;29.05;40.21
22580;BME280;11456;47.030;15.396;2022-07-29T12:16:15;97463.53;;;28.59;41.29
22580;BME280;11456;47.030;15.396;2022-07-29T12:19:03;97454.22;;;28.91;41.03
22580;BME280;11456;47.030;15.396;2022-07-29T12:21:47;97457.88;;;29.57;40.44
22580;BME280;11456;47.030;15.396;2022-07-29T12:24:22;97451.47;;;29.26;41.07
22580;BME280;11456;47.030;15.396;2022-07-29T12:26:56;97455.88;;;28.92;42.62
22580;BME280;11456;47.030;15.396;2022-07-29T12:29:24;97451.91;;;28.73;43.15
22580;BME280;11456;47.030;15.396;2022-07-29T12:32:02;97459.22;;;29.14;43.18
22580;BME280;11456;47.030;15.396;2022-07-29T12:34:30;97448.72;;;29.41;41.60
22580;BME280;11456;47.030;15.396;2022-07-29T12:36:57;97453.72;;;29.70;41.56
22580;BME280;11456;47.030;15.396;2022-07-29T12:39:24;97443.69;;;29.28;42.05
22580;BME280;11456;47.030;15.396;2022-07-29T12:41:54;97451.44;;;28.86;42.96
22580;BME280;11456;47.030;15.396;2022-07-29T12:44:50;97450.84;;;28.84;43.52
22580;BME280;11456;47.030;15.396;2022-07-29T12:47:18;97455.34;;;29.15;42.56
22580;BME280;11456;47.030;15.396;2022-07-29T12:49:45;97450.69;;;29.36;42.76
22580;BME280;11456;47.030;15.396;2022-07-29T12:52:33;97456.41;;;28.89;42.61
22580;BME280;11456;47.030;15.396;2022-07-29T12:55:01;97442.50;;;28.74;43.08
22580;BME280;11456;47.030;15.396;2022-07-29T12:57:28;97447.03;;;28.22;45.05
22580;BME280;11456;47.030;15.396;2022-07-29T13:02:26;97435.34;;;28.83;43.40
22580;BME280;11456;47.030;15.396;2022-07-29T13:04:59;97437.66;;;28.28;44.87
22580;BME280;11456;47.030;15.396;2022-07-29T13:07:31;97441.34;;;28.59;44.57
22580;BME280;11456;47.030;15.396;2022-07-29T13:10:20;97432.34;;;28.22;45.32
22580;BME280;11456;47.030;15.396;2022-07-29T13:13:09;97433.03;;;28.64;45.18
22580;BME280;11456;47.030;15.396;2022-07-29T13:15:38;97430.94;;;28.97;41.82
22580;BME280;11456;47.030;15.396;2022-07-29T13:18:30;97424.16;;;28.62;43.19
22580;BME280;11456;47.030;15.396;2022-07-29T13:20:57;97434.16;;;28.63;44.23
22580;BME280;11456;47.030;15.396;2022-07-29T13:23:36;97426.94;;;28.62;44.35
22580;BME280;11456;47.030;15.396;2022-07-29T13:26:08;97436.50;;;29.17;43.92
22580;BME280;11456;47.030;15.396;2022-07-29T13:28:35;97423.19;;;29.24;41.09
22580;BME280;11456;47.030;15.396;2022-07-29T13:31:02;97426.50;;;29.11;41.60
22580;BME280;11456;47.030;15.396;2022-07-29T13:33:30;97412.34;;;29.33;43.36
22580;BME280;11456;47.030;15.396;2022-07-29T13:35:57;97413.16;;;28.88;42.96
22580;BME280;11456;47.030;15.396;2022-07-29T13:38:23;97396.88;;;30.32;41.43
22580;BME280;11456;47.030;15.396;2022-07-29T13:40:57;97404.50;;;29.90;41.84
22580;BME280;11456;47.030;15.396;2022-07-29T13:43:24;97395.94;;;29.77;41.87
22580;BME280;11456;47.030;15.396;2022-07-29T13:45:50;97406.81;;;29.53;42.23
22580;BME280;11456;47.030;15.396;2022-07-29T13:48:18;97406.00;;;29.12;43.10